createdAt,value
2017-08-09T00:01:13.972Z,99.90
2017-08-09T00:03:42.891Z,99.90
2017-08-09T00:06:11.750Z,99.90
2017-08-09T00:08:40.755Z,99.90
2017-08-09T00:11:09.746Z,99.90
2017-08-09T00:13:38.646Z,99.90
2017-08-09T00:16:07.586Z,99.90
2017-08-09T00:18:36.495Z,99.90
2017-08-09T00:21:05.399Z,99.90
2017-08-09T00:23:34.287Z,99.90
2017-08-09T00:26:03.207Z,99.90
2017-08-09T00:29:51.212Z,99.90
2017-08-09T00:32:20.201Z,99.90
2017-08-09T00:34:49.152Z,99.90
2017-08-09T00:37:18.056Z,99.90
2017-08-09T00:39:46.988Z,99.90
2017-08-09T00:42:15.909Z,99.90
2017-08-09T00:46:04.204Z,99.90
2017-08-09T00:48:33.102Z,99.90
2017-08-09T00:51:02.021Z,99.90
2017-08-09T00:53:30.935Z,99.90
2017-08-09T00:55:59.868Z,99.90
2017-08-09T00:58:28.733Z,99.90
2017-08-09T01:00:57.685Z,99.90
2017-08-09T01:03:26.596Z,99.90
2017-08-09T01:05:55.518Z,99.90
2017-08-09T01:08:24.438Z,99.90
2017-08-09T01:10:53.366Z,99.90
2017-08-09T01:13:22.270Z,99.90
2017-08-09T01:15:51.236Z,99.90
2017-08-09T01:18:20.173Z,99.90
2017-08-09T01:20:49.091Z,99.90
2017-08-09T01:23:17.983Z,99.90
2017-08-09T01:25:46.915Z,99.90
2017-08-09T01:28:15.816Z,99.90
2017-08-09T01:30:44.727Z,99.90
2017-08-09T01:33:13.623Z,99.90
2017-08-09T01:35:42.559Z,99.90
2017-08-09T01:38:11.519Z,99.90
2017-08-09T01:40:40.466Z,99.90
2017-08-09T01:43:09.458Z,99.90
2017-08-09T01:45:38.483Z,99.90
2017-08-09T01:48:07.393Z,99.90
2017-08-09T01:50:36.368Z,99.90
2017-08-09T01:53:05.326Z,99.90
2017-08-09T01:55:34.270Z,99.90
2017-08-09T01:58:03.169Z,99.90
2017-08-09T02:00:32.207Z,99.90
2017-08-09T02:03:01.164Z,99.90
2017-08-09T02:05:30.122Z,99.90
2017-08-09T02:07:59.086Z,99.90
2017-08-09T02:10:28.000Z,99.90
2017-08-09T02:12:56.913Z,99.90
2017-08-09T02:15:25.795Z,99.90
2017-08-09T02:18:56.937Z,99.90
2017-08-09T02:21:25.870Z,99.90
2017-08-09T02:23:54.776Z,99.90
2017-08-09T02:26:23.650Z,99.90
2017-08-09T02:28:52.571Z,99.90
2017-08-09T02:31:21.477Z,99.90
2017-08-09T02:33:50.406Z,99.90
2017-08-09T02:36:19.352Z,99.90
2017-08-09T02:38:48.275Z,99.90
2017-08-09T02:41:17.203Z,99.90
2017-08-09T02:43:46.163Z,99.90
2017-08-09T02:46:15.099Z,99.90
2017-08-09T02:48:44.012Z,99.90
2017-08-09T02:51:12.921Z,99.90
2017-08-09T02:53:41.839Z,99.90
2017-08-09T02:56:10.750Z,99.90
2017-08-09T02:58:39.678Z,99.90
2017-08-09T03:01:08.607Z,99.90
2017-08-09T03:03:37.482Z,99.90
2017-08-09T03:06:06.390Z,99.90
2017-08-09T03:08:35.304Z,99.90
2017-08-09T03:11:04.243Z,99.90
2017-08-09T03:13:33.153Z,99.90
2017-08-09T03:16:02.081Z,99.90
2017-08-09T03:18:30.987Z,99.90
2017-08-09T03:20:59.895Z,99.90
2017-08-09T03:23:28.849Z,99.90
2017-08-09T03:25:57.757Z,99.90
2017-08-09T03:28:26.648Z,99.90
2017-08-09T03:30:55.552Z,99.90
2017-08-09T03:33:24.465Z,99.90
2017-08-09T03:35:53.424Z,99.90
2017-08-09T03:38:22.351Z,99.90
2017-08-09T03:40:51.260Z,99.90
2017-08-09T03:43:20.182Z,99.90
2017-08-09T03:45:49.107Z,99.90
2017-08-09T03:48:18.076Z,99.90
2017-08-09T03:50:46.971Z,99.90
2017-08-09T03:53:15.864Z,99.90
2017-08-09T03:55:44.782Z,99.90
2017-08-09T03:58:13.705Z,99.90
2017-08-09T04:00:42.646Z,99.90
2017-08-09T04:03:11.695Z,99.90
2017-08-09T04:05:40.668Z,99.90
2017-08-09T04:08:09.583Z,99.90
2017-08-09T04:10:38.499Z,99.90
2017-08-09T04:13:07.374Z,99.90
2017-08-09T04:15:36.257Z,99.90
2017-08-09T04:18:05.428Z,99.90
2017-08-09T04:20:34.328Z,99.90
2017-08-09T04:24:22.595Z,99.90
2017-08-09T04:26:51.578Z,99.90
2017-08-09T04:29:20.492Z,99.90
2017-08-09T04:31:49.427Z,99.90
2017-08-09T04:34:18.368Z,99.90
2017-08-09T04:36:52.590Z,99.90
2017-08-09T04:39:21.525Z,99.90
2017-08-09T04:41:50.407Z,99.90
2017-08-09T04:44:19.349Z,99.90
2017-08-09T04:46:48.274Z,99.90
2017-08-09T04:49:17.263Z,99.90
2017-08-09T04:51:46.176Z,99.90
2017-08-09T04:54:15.119Z,99.90
2017-08-09T04:56:44.044Z,99.90
2017-08-09T04:59:12.956Z,99.90
2017-08-09T05:01:41.931Z,99.90
2017-08-09T05:04:10.859Z,99.90
2017-08-09T05:06:39.766Z,99.90
2017-08-09T05:09:39.451Z,99.90
2017-08-09T05:12:08.363Z,99.90
2017-08-09T05:14:37.340Z,99.90
2017-08-09T05:17:06.286Z,99.90
2017-08-09T05:19:36.166Z,99.90
2017-08-09T05:22:05.147Z,99.90
2017-08-09T05:24:34.062Z,99.90
2017-08-09T05:27:03.007Z,99.90
2017-08-09T05:29:31.971Z,99.90
2017-08-09T05:32:00.998Z,99.90
2017-08-09T05:34:30.464Z,99.90
2017-08-09T05:36:59.505Z,99.90
2017-08-09T05:40:30.928Z,99.90
2017-08-09T05:42:59.908Z,99.90
2017-08-09T05:45:29.354Z,99.90
2017-08-09T05:47:58.318Z,99.90
2017-08-09T05:50:27.563Z,99.90
2017-08-09T05:52:56.559Z,99.90
2017-08-09T05:55:25.523Z,99.90
2017-08-09T05:57:56.287Z,99.90
2017-08-09T06:00:25.272Z,99.90
2017-08-09T06:02:54.246Z,99.90
2017-08-09T06:05:23.235Z,99.90
2017-08-09T06:07:52.143Z,99.90
2017-08-09T06:10:21.129Z,99.90
2017-08-09T06:12:50.630Z,99.90
2017-08-09T06:15:19.578Z,99.90
2017-08-09T06:17:48.612Z,99.90
2017-08-09T06:20:17.569Z,99.90
2017-08-09T06:22:48.339Z,99.90
2017-08-09T06:25:17.300Z,99.90
2017-08-09T06:27:46.377Z,99.90
2017-08-09T06:30:15.415Z,99.90
2017-08-09T06:32:44.367Z,99.90
2017-08-09T06:35:13.408Z,99.90
2017-08-09T06:37:43.174Z,99.90
2017-08-09T06:40:12.164Z,99.90
2017-08-09T06:42:41.167Z,99.90
2017-08-09T06:45:10.106Z,99.90
2017-08-09T06:47:39.433Z,99.90
2017-08-09T06:50:09.002Z,99.90
2017-08-09T06:52:37.978Z,99.90
2017-08-09T06:55:07.870Z,99.90
2017-08-09T06:57:37.466Z,99.10
2017-08-09T07:00:07.227Z,97.00
2017-08-09T07:02:36.187Z,98.20
2017-08-09T07:05:05.175Z,97.50
2017-08-09T07:07:35.319Z,95.30
2017-08-09T07:10:04.235Z,92.80
2017-08-09T07:12:34.256Z,92.70
2017-08-09T07:15:04.132Z,92.80
2017-08-09T07:17:33.424Z,92.10
2017-08-09T07:20:02.350Z,89.90
2017-08-09T07:22:31.824Z,91.60
2017-08-09T07:25:00.836Z,90.70
2017-08-09T07:27:29.771Z,90.90
2017-08-09T07:29:58.778Z,93.10
2017-08-09T07:32:27.831Z,92.70
2017-08-09T07:34:56.791Z,93.90
2017-08-09T07:37:25.667Z,96.20
2017-08-09T07:39:54.674Z,97.80
2017-08-09T07:42:23.660Z,98.90
2017-08-09T07:44:52.650Z,99.70
2017-08-09T07:47:21.886Z,99.90
2017-08-09T07:49:50.911Z,99.90
2017-08-09T07:52:19.881Z,99.90
2017-08-09T07:54:48.949Z,99.90
2017-08-09T07:57:17.921Z,99.90
2017-08-09T07:59:46.855Z,99.90
2017-08-09T08:02:15.870Z,99.90
2017-08-09T08:04:44.782Z,99.90
2017-08-09T08:07:14.531Z,99.90
2017-08-09T08:09:43.509Z,99.90
2017-08-09T08:12:14.235Z,99.90
2017-08-09T08:14:43.223Z,99.90
2017-08-09T08:17:15.142Z,99.90
2017-08-09T08:19:44.130Z,99.90
2017-08-09T08:22:13.131Z,99.90
2017-08-09T08:24:42.183Z,99.90
2017-08-09T08:27:11.234Z,99.90
2017-08-09T08:29:40.204Z,99.90
2017-08-09T08:32:09.125Z,99.90
2017-08-09T08:34:38.436Z,99.90
2017-08-09T08:37:07.452Z,99.90
2017-08-09T08:39:36.774Z,99.90
2017-08-09T08:42:05.732Z,99.90
2017-08-09T08:44:34.837Z,99.30
2017-08-09T08:47:05.363Z,99.80
2017-08-09T08:49:34.359Z,98.30
2017-08-09T08:52:03.347Z,96.30
2017-08-09T08:54:32.402Z,96.10
2017-08-09T08:57:01.357Z,95.20
2017-08-09T08:59:30.354Z,96.80
2017-08-09T09:02:02.387Z,98.00
2017-08-09T09:04:31.375Z,96.20
2017-08-09T09:07:00.450Z,95.70
2017-08-09T09:09:29.579Z,92.80
2017-08-09T09:11:58.576Z,93.50
2017-08-09T09:14:27.630Z,93.90
2017-08-09T09:16:56.650Z,94.00
2017-08-09T09:19:25.585Z,96.30
2017-08-09T09:21:54.692Z,94.90
2017-08-09T09:37:31.707Z,93.70
2017-08-09T09:40:00.643Z,76.60
2017-08-09T09:42:29.596Z,76.40
2017-08-09T09:44:58.720Z,74.60
2017-08-09T09:47:27.706Z,75.80
2017-08-09T09:49:56.676Z,71.00
2017-08-09T09:52:25.699Z,69.20
2017-08-09T09:54:54.651Z,75.70
2017-08-09T09:57:23.689Z,70.90
2017-08-09T09:59:52.721Z,74.30
2017-08-09T10:02:22.519Z,70.40
2017-08-09T10:04:51.544Z,69.40
2017-08-09T10:07:20.624Z,69.80
2017-08-09T10:09:49.536Z,66.90
2017-08-09T10:12:18.484Z,70.80
2017-08-09T10:14:47.418Z,65.30
2017-08-09T10:17:16.672Z,67.90
2017-08-09T10:19:45.695Z,66.60
2017-08-09T10:22:14.745Z,68.50
2017-08-09T10:24:43.703Z,67.40
2017-08-09T10:27:12.695Z,68.20
2017-08-09T10:29:42.400Z,66.50
2017-08-09T10:32:11.459Z,67.80
2017-08-09T10:34:41.052Z,65.80
2017-08-09T10:37:10.520Z,64.40
2017-08-09T10:39:39.493Z,63.30
2017-08-09T10:42:08.577Z,66.10
2017-08-09T10:44:37.692Z,69.80
2017-08-09T10:47:07.097Z,71.90
2017-08-09T10:49:36.187Z,67.10
2017-08-09T10:52:05.135Z,64.30
2017-08-09T10:55:53.538Z,62.80
2017-08-09T10:58:22.675Z,61.90
2017-08-09T11:00:51.670Z,68.00
2017-08-09T11:03:20.738Z,64.70
2017-08-09T11:06:53.173Z,62.10
2017-08-09T11:09:36.622Z,63.60
2017-08-09T11:12:05.627Z,60.10
2017-08-09T11:14:34.634Z,58.70
2017-08-09T11:17:03.722Z,56.80
2017-08-09T11:19:32.823Z,56.50
2017-08-09T11:22:04.127Z,57.00
2017-08-09T11:24:33.657Z,57.10
2017-08-09T11:27:02.833Z,57.20
2017-08-09T11:29:32.030Z,59.40
2017-08-09T11:32:01.123Z,55.10
2017-08-09T11:34:30.126Z,56.60
2017-08-09T11:36:59.162Z,59.20
2017-08-09T11:39:28.261Z,62.20
2017-08-09T11:42:00.134Z,58.50
2017-08-09T11:44:29.239Z,63.40
2017-08-09T11:49:33.849Z,66.10
2017-08-09T11:52:03.155Z,66.40
2017-08-09T11:54:32.168Z,65.10
2017-08-09T11:57:01.160Z,64.60
2017-08-09T11:59:30.282Z,67.90
2017-08-09T12:01:59.377Z,62.80
2017-08-09T12:04:28.362Z,62.30
2017-08-09T12:06:57.295Z,65.10
2017-08-09T12:09:26.412Z,60.70
2017-08-09T12:11:55.462Z,62.40
2017-08-09T12:14:29.571Z,64.90
2017-08-09T12:16:58.598Z,67.60
2017-08-09T12:19:27.591Z,67.70
2017-08-09T12:21:56.599Z,66.40
2017-08-09T12:24:25.797Z,65.70
2017-08-09T12:26:54.852Z,68.50
2017-08-09T12:29:23.948Z,69.20
2017-08-09T12:33:12.402Z,68.50
2017-08-09T12:35:41.575Z,64.30
2017-08-09T12:38:11.186Z,67.30
2017-08-09T12:40:40.821Z,69.00
2017-08-09T12:43:09.857Z,68.60
2017-08-09T12:45:38.870Z,67.70
2017-08-09T12:48:07.979Z,64.40
2017-08-09T12:50:36.969Z,66.90
2017-08-09T12:53:06.021Z,65.40
2017-08-09T12:55:35.024Z,64.70
2017-08-09T12:58:04.043Z,65.30
2017-08-09T13:00:33.167Z,63.40
2017-08-09T13:03:02.244Z,62.50
2017-08-09T13:05:31.323Z,63.20
2017-08-09T13:08:00.368Z,64.50
2017-08-09T13:10:29.422Z,63.60
2017-08-09T13:12:58.443Z,62.00
2017-08-09T13:15:27.372Z,66.40
2017-08-09T13:17:56.343Z,61.10
2017-08-09T13:20:25.444Z,65.10
2017-08-09T13:22:54.499Z,65.50
2017-08-09T13:25:23.590Z,67.90
2017-08-09T13:27:52.690Z,68.00
2017-08-09T13:30:21.670Z,68.20
2017-08-09T13:32:50.656Z,68.40
2017-08-09T13:35:20.394Z,68.30
2017-08-09T13:37:49.421Z,67.10
2017-08-09T13:40:18.494Z,66.70
2017-08-09T13:42:47.549Z,68.00
2017-08-09T13:45:16.570Z,66.90
2017-08-09T13:47:45.568Z,69.40
2017-08-09T13:50:14.646Z,67.70
2017-08-09T13:52:43.800Z,68.40
2017-08-09T13:55:12.809Z,66.10
2017-08-09T13:57:41.952Z,65.80
2017-08-09T14:00:11.016Z,71.60
2017-08-09T14:02:40.060Z,68.20
2017-08-09T14:05:09.129Z,68.20
2017-08-09T14:07:38.552Z,68.60
2017-08-09T14:10:07.977Z,67.30
2017-08-09T14:12:37.001Z,69.90
2017-08-09T14:15:05.945Z,71.40
2017-08-09T14:17:34.989Z,70.30
2017-08-09T14:20:04.048Z,72.70
2017-08-09T14:22:33.099Z,70.90
2017-08-09T14:25:02.941Z,75.40
2017-08-09T14:27:32.511Z,71.90
2017-08-09T14:30:01.499Z,73.80
2017-08-09T14:32:30.563Z,68.90
2017-08-09T14:34:59.609Z,70.30
2017-08-09T14:37:28.788Z,72.10
2017-08-09T14:39:57.833Z,67.90
2017-08-09T14:42:27.103Z,70.80
2017-08-09T14:44:57.536Z,71.90
2017-08-09T14:47:27.015Z,69.50
2017-08-09T14:49:56.649Z,71.00
2017-08-09T14:52:29.439Z,70.60
2017-08-09T14:54:58.968Z,70.80
2017-08-09T14:57:28.336Z,71.40
2017-08-09T14:59:59.259Z,73.00
2017-08-09T15:05:15.582Z,74.30
2017-08-09T15:07:44.990Z,77.30
2017-08-09T15:10:14.593Z,77.30
2017-08-09T15:15:26.548Z,99.90
2017-08-09T15:17:55.649Z,99.90
2017-08-09T15:20:24.772Z,99.90
2017-08-09T15:22:53.849Z,99.90
2017-08-09T15:26:25.636Z,99.90
2017-08-09T15:28:54.761Z,99.90
2017-08-09T15:31:23.901Z,99.90
2017-08-09T15:36:34.090Z,99.90
2017-08-09T15:39:04.497Z,99.90
2017-08-09T15:44:18.826Z,99.90
2017-08-09T15:46:48.103Z,99.90
2017-08-09T15:49:17.317Z,99.90
2017-08-09T15:51:46.549Z,99.90
2017-08-09T15:54:15.714Z,99.90
2017-08-09T15:56:45.033Z,99.90
2017-08-09T15:59:14.248Z,99.90
2017-08-09T16:01:43.259Z,99.90
2017-08-09T16:04:12.358Z,99.90
2017-08-09T16:06:41.685Z,99.90
2017-08-09T16:09:10.864Z,98.70
2017-08-09T16:11:42.978Z,97.80
2017-08-09T16:14:12.374Z,96.00
2017-08-09T16:19:23.972Z,98.70
2017-08-09T16:21:53.052Z,97.20
2017-08-09T16:24:23.171Z,98.70
2017-08-09T16:26:52.184Z,98.60
2017-08-09T16:29:21.347Z,96.90
2017-08-09T16:31:50.353Z,98.30
2017-08-09T16:34:21.274Z,95.20
2017-08-09T16:36:50.715Z,96.40
2017-08-09T16:39:20.404Z,93.10
2017-08-09T16:41:49.406Z,92.60
2017-08-09T16:44:18.533Z,93.60
2017-08-09T16:46:47.664Z,94.30
2017-08-09T16:49:16.816Z,94.00
2017-08-09T16:51:45.839Z,93.80
2017-08-09T16:54:14.856Z,95.50
2017-08-09T16:56:43.940Z,93.10
2017-08-09T16:59:13.002Z,92.20
2017-08-09T17:01:42.060Z,92.20
2017-08-09T17:04:11.137Z,91.60
2017-08-09T17:06:40.262Z,91.40
2017-08-09T17:09:09.443Z,95.30
2017-08-09T17:11:38.601Z,93.10
2017-08-09T17:16:52.400Z,91.80
2017-08-09T17:19:21.882Z,93.80
2017-08-09T17:24:30.534Z,91.90
2017-08-09T17:26:59.558Z,90.50
2017-08-09T17:29:28.646Z,93.90
2017-08-09T17:31:57.768Z,93.00
2017-08-09T17:34:27.422Z,92.50
2017-08-09T17:36:57.170Z,93.40
2017-08-09T17:39:26.472Z,93.00
2017-08-09T17:41:55.533Z,95.10
2017-08-09T17:44:24.543Z,96.30
2017-08-09T17:46:53.639Z,94.20
2017-08-09T17:49:31.456Z,95.30
2017-08-09T17:52:01.415Z,94.00
2017-08-09T17:54:30.811Z,96.30
2017-08-09T17:57:00.269Z,96.60
2017-08-09T17:59:29.700Z,96.90
2017-08-09T18:01:59.795Z,97.50
2017-08-09T18:04:29.228Z,98.90
2017-08-09T18:06:58.434Z,96.20
2017-08-09T18:09:27.732Z,95.80
2017-08-09T18:11:56.777Z,97.70
2017-08-09T18:14:25.807Z,97.90
2017-08-09T18:16:54.944Z,99.80
2017-08-09T18:19:23.908Z,99.70
2017-08-09T18:21:53.948Z,99.90
2017-08-09T18:24:22.995Z,99.90
2017-08-09T18:26:52.002Z,99.90
2017-08-09T18:29:20.979Z,99.90
2017-08-09T18:31:49.944Z,99.90
2017-08-09T18:34:19.942Z,99.90
2017-08-09T18:36:49.099Z,99.90
2017-08-09T18:39:18.119Z,99.90
2017-08-09T18:44:25.349Z,99.90
2017-08-09T18:46:54.494Z,99.90
2017-08-09T18:49:23.517Z,99.90
2017-08-09T18:51:53.151Z,99.90
2017-08-09T18:54:22.555Z,99.90
2017-08-09T18:56:52.038Z,99.90
2017-08-09T18:59:21.055Z,99.90
2017-08-09T19:01:50.816Z,99.90
2017-08-09T19:04:20.625Z,99.90
2017-08-09T19:06:49.723Z,99.90
2017-08-09T19:09:18.751Z,99.90
2017-08-09T19:11:47.864Z,99.90
2017-08-09T19:14:16.968Z,99.90
2017-08-09T19:16:46.010Z,99.90
2017-08-09T19:19:17.150Z,99.90
2017-08-09T19:21:46.170Z,99.90
2017-08-09T19:24:15.275Z,99.90
2017-08-09T19:26:45.059Z,99.90
2017-08-09T19:29:13.991Z,99.90
2017-08-09T19:31:43.093Z,99.90
2017-08-09T19:34:12.155Z,99.90
2017-08-09T19:36:41.493Z,99.90
2017-08-09T19:39:10.551Z,99.90
2017-08-09T19:41:40.012Z,99.90
2017-08-09T19:44:09.059Z,99.90
2017-08-09T19:46:38.092Z,99.90
2017-08-09T19:49:07.110Z,99.90
2017-08-09T19:51:36.129Z,99.90
2017-08-09T19:54:05.144Z,99.90
2017-08-09T19:56:34.123Z,99.90
2017-08-09T19:59:03.084Z,99.90
2017-08-09T20:01:32.877Z,99.90
2017-08-09T20:04:04.008Z,99.90
2017-08-09T20:06:33.039Z,99.90
2017-08-09T20:09:02.014Z,99.90
2017-08-09T20:11:30.965Z,99.90
2017-08-09T20:14:00.667Z,99.90
2017-08-09T20:16:29.710Z,99.90
2017-08-09T20:18:58.805Z,99.90
2017-08-09T20:21:31.830Z,99.90
2017-08-09T20:24:00.918Z,99.90
2017-08-09T20:26:29.948Z,99.90
2017-08-09T20:28:59.003Z,99.90
2017-08-09T20:31:28.054Z,99.90
2017-08-09T20:33:57.068Z,99.90
2017-08-09T20:37:45.407Z,99.90
2017-08-09T20:40:14.416Z,99.90
2017-08-09T20:42:43.452Z,99.90
2017-08-09T20:45:12.931Z,99.90
2017-08-09T20:48:44.191Z,99.90
2017-08-09T20:51:13.175Z,99.90
2017-08-09T20:53:42.087Z,99.90
2017-08-09T20:56:11.015Z,99.90
2017-08-09T20:58:40.028Z,99.90
2017-08-09T21:01:08.936Z,99.90
2017-08-09T21:03:38.559Z,99.90
2017-08-09T21:06:07.664Z,99.90
2017-08-09T21:08:36.700Z,99.90
2017-08-09T21:11:05.629Z,99.90
2017-08-09T21:13:34.641Z,99.90
2017-08-09T21:16:03.680Z,99.90
2017-08-09T21:18:32.610Z,99.90
2017-08-09T21:21:01.580Z,99.90
2017-08-09T21:23:30.511Z,99.90
2017-08-09T21:25:59.478Z,99.90
2017-08-09T21:28:28.587Z,99.90
2017-08-09T21:30:57.676Z,99.90
2017-08-09T21:33:27.175Z,99.90
2017-08-09T21:35:56.176Z,99.90
2017-08-09T21:38:25.138Z,99.90
2017-08-09T21:40:54.140Z,99.90
2017-08-09T21:43:23.395Z,99.90
2017-08-09T21:45:52.353Z,99.90
2017-08-09T21:48:21.669Z,99.90
2017-08-09T21:50:50.673Z,99.90
2017-08-09T21:53:19.759Z,99.90
2017-08-09T21:55:48.695Z,99.90
2017-08-09T21:58:17.661Z,99.90
2017-08-09T22:03:21.907Z,99.90
2017-08-09T22:05:50.892Z,99.90
2017-08-09T22:08:19.940Z,99.90
2017-08-09T22:10:48.930Z,99.90
2017-08-09T22:13:17.833Z,99.90
2017-08-09T22:15:46.785Z,99.90
2017-08-09T22:18:15.792Z,99.90
2017-08-09T22:20:44.751Z,99.90
2017-08-09T22:23:13.731Z,99.90
2017-08-09T22:25:42.699Z,99.90
2017-08-09T22:28:11.695Z,99.90
2017-08-09T22:30:40.614Z,99.90
2017-08-09T22:33:09.588Z,99.90
2017-08-09T22:35:38.634Z,99.90
2017-08-09T22:38:07.615Z,99.90
2017-08-09T22:40:36.548Z,99.90
2017-08-09T22:43:05.549Z,99.90
2017-08-09T22:45:34.475Z,99.90
2017-08-09T22:48:03.399Z,99.90
2017-08-09T22:50:32.357Z,99.90
2017-08-09T22:53:01.293Z,99.90
2017-08-09T22:58:08.323Z,99.90
2017-08-09T23:00:37.578Z,99.90
2017-08-09T23:03:06.485Z,99.90
2017-08-09T23:05:35.374Z,99.90
2017-08-09T23:08:04.314Z,99.90
2017-08-09T23:10:33.250Z,99.90
2017-08-09T23:13:02.668Z,99.90
2017-08-09T23:15:31.595Z,99.90
2017-08-09T23:18:00.499Z,99.90
2017-08-09T23:20:29.475Z,99.90
2017-08-09T23:22:58.368Z,99.90
2017-08-09T23:25:27.300Z,99.90
2017-08-09T23:27:56.241Z,99.90
2017-08-09T23:30:25.181Z,99.90
2017-08-09T23:32:54.070Z,99.90
2017-08-09T23:35:22.991Z,99.90
2017-08-09T23:37:51.936Z,99.90
2017-08-09T23:40:20.843Z,99.90
2017-08-09T23:42:49.792Z,99.90
2017-08-09T23:45:18.831Z,99.90
2017-08-09T23:47:47.749Z,99.90
2017-08-09T23:50:16.644Z,99.90
2017-08-09T23:52:45.535Z,99.90
2017-08-09T23:55:14.455Z,99.90
2017-08-09T23:57:43.338Z,99.90
